sensor_id;sensor_type;location;lat;lon;timestamp;temperature;humidity
17851;DHT22;9051;51.548;14.348;2022-09-09T00:01:00;14.10;99.90
17851;DHT22;9051;51.548;14.348;2022-09-09T00:03:40;14.00;99.90
17851;DHT22;9051;51.548;14.348;2022-09-09T00:06:23;13.90;99.90
17851;DHT22;9051;51.548;14.348;2022-09-09T00:09:02;13.80;99.90
17851;DHT22;9051;51.548;14.348;2022-09-09T00:11:41;13.80;99.90
17851;DHT22;9051;51.548;14.348;2022-09-09T00:14:22;13.80;99.90
17851;DHT22;9051;51.548;14.348;2022-09-09T00:16:58;13.80;99.90
17851;DHT22;9051;51.548;14.348;2022-09-09T00:19:38;13.70;99.90
17851;DHT22;9051;51.548;14.348;2022-09-09T00:22:18;13.70;99.90
17851;DHT22;9051;51.548;14.348;2022-09-09T00:24:52;13.70;99.90
17851;DHT22;9051;51.548;14.348;2022-09-09T00:27:29;13.70;99.90
17851;DHT22;9051;51.548;14.348;2022-09-09T00:30:14;13.70;99.90
17851;DHT22;9051;51.548;14.348;2022-09-09T00:32:47;13.70;99.90
17851;DHT22;9051;51.548;14.348;2022-09-09T00:35:24;13.70;99.90
17851;DHT22;9051;51.548;14.348;2022-09-09T00:38:01;13.70;99.90
17851;DHT22;9051;51.548;14.348;2022-09-09T00:40:37;13.70;99.90
17851;DHT22;9051;51.548;14.348;2022-09-09T00:43:25;13.70;99.90
17851;DHT22;9051;51.548;14.348;2022-09-09T00:46:21;13.70;99.90
17851;DHT22;9051;51.548;14.348;2022-09-09T00:49:04;13.80;99.90
17851;DHT22;9051;51.548;14.348;2022-09-09T00:51:46;13.90;99.90
17851;DHT22;9051;51.548;14.348;2022-09-09T00:54:34;13.80;99.90
17851;DHT22;9051;51.548;14.348;2022-09-09T00:57:23;13.80;99.90
17851;DHT22;9051;51.548;14.348;2022-09-09T01:00:17;13.70;99.90
17851;DHT22;9051;51.548;14.348;2022-09-09T01:03:07;13.80;99.90
17851;DHT22;9051;51.548;14.348;2022-09-09T01:05:45;13.80;99.90
17851;DHT22;9051;51.548;14.348;2022-09-09T01:08:38;13.80;99.90
17851;DHT22;9051;51.548;14.348;2022-09-09T01:11:20;13.80;99.90
17851;DHT22;9051;51.548;14.348;2022-09-09T01:13:58;13.70;99.90
17851;DHT22;9051;51.548;14.348;2022-09-09T01:16:36;13.70;99.90
17851;DHT22;9051;51.548;14.348;2022-09-09T01:19:16;13.70;99.90
17851;DHT22;9051;51.548;14.348;2022-09-09T01:21:59;13.70;99.90
17851;DHT22;9051;51.548;14.348;2022-09-09T01:24:38;13.60;99.90
17851;DHT22;9051;51.548;14.348;2022-09-09T01:27:21;13.60;99.90
17851;DHT22;9051;51.548;14.348;2022-09-09T01:29:56;13.50;99.90
17851;DHT22;9051;51.548;14.348;2022-09-09T01:32:41;13.40;99.90
17851;DHT22;9051;51.548;14.348;2022-09-09T01:35:26;13.40;99.90
17851;DHT22;9051;51.548;14.348;2022-09-09T01:38:04;13.40;99.90
17851;DHT22;9051;51.548;14.348;2022-09-09T01:40:38;13.50;99.90
17851;DHT22;9051;51.548;14.348;2022-09-09T01:43:13;13.40;99.90
17851;DHT22;9051;51.548;14.348;2022-09-09T01:45:46;13.40;99.90
17851;DHT22;9051;51.548;14.348;2022-09-09T01:48:20;13.30;99.90
17851;DHT22;9051;51.548;14.348;2022-09-09T01:51:05;13.20;99.90
17851;DHT22;9051;51.548;14.348;2022-09-09T01:53:38;13.20;99.90
17851;DHT22;9051;51.548;14.348;2022-09-09T01:56:25;13.10;99.90
17851;DHT22;9051;51.548;14.348;2022-09-09T01:59:13;13.10;99.90
17851;DHT22;9051;51.548;14.348;2022-09-09T02:02:03;13.10;99.90
17851;DHT22;9051;51.548;14.348;2022-09-09T02:04:41;13.20;99.90
17851;DHT22;9051;51.548;14.348;2022-09-09T02:07:31;13.10;99.90
17851;DHT22;9051;51.548;14.348;2022-09-09T02:10:11;13.20;99.90
17851;DHT22;9051;51.548;14.348;2022-09-09T02:12:54;13.20;99.90
17851;DHT22;9051;51.548;14.348;2022-09-09T02:15:34;13.20;99.90
17851;DHT22;9051;51.548;14.348;2022-09-09T02:18:09;13.20;99.90
17851;DHT22;9051;51.548;14.348;2022-09-09T02:20:45;13.30;99.90
17851;DHT22;9051;51.548;14.348;2022-09-09T02:23:19;13.30;99.90
17851;DHT22;9051;51.548;14.348;2022-09-09T02:25:58;13.30;99.90
17851;DHT22;9051;51.548;14.348;2022-09-09T02:28:32;13.30;99.90
17851;DHT22;9051;51.548;14.348;2022-09-09T02:31:06;13.40;99.90
17851;DHT22;9051;51.548;14.348;2022-09-09T02:33:47;13.30;99.90
17851;DHT22;9051;51.548;14.348;2022-09-09T02:36:22;13.30;99.90
17851;DHT22;9051;51.548;14.348;2022-09-09T02:38:56;13.30;99.90
17851;DHT22;9051;51.548;14.348;2022-09-09T02:41:36;13.30;99.90
17851;DHT22;9051;51.548;14.348;2022-09-09T02:44:11;13.30;99.90
17851;DHT22;9051;51.548;14.348;2022-09-09T02:46:58;13.30;99.90
17851;DHT22;9051;51.548;14.348;2022-09-09T02:49:44;13.30;99.90
17851;DHT22;9051;51.548;14.348;2022-09-09T02:52:27;13.40;99.90
17851;DHT22;9051;51.548;14.348;2022-09-09T02:55:07;13.50;99.90
17851;DHT22;9051;51.548;14.348;2022-09-09T02:57:43;13.40;99.90
17851;DHT22;9051;51.548;14.348;2022-09-09T03:00:23;13.50;99.90
17851;DHT22;9051;51.548;14.348;2022-09-09T03:02:58;13.40;99.90
17851;DHT22;9051;51.548;14.348;2022-09-09T03:05:31;13.40;99.90
17851;DHT22;9051;51.548;14.348;2022-09-09T03:08:04;13.30;99.90
17851;DHT22;9051;51.548;14.348;2022-09-09T03:10:37;13.20;99.90
17851;DHT22;9051;51.548;14.348;2022-09-09T03:13:11;13.20;99.90
17851;DHT22;9051;51.548;14.348;2022-09-09T03:15:44;13.10;99.90
17851;DHT22;9051;51.548;14.348;2022-09-09T03:18:22;13.00;99.90
17851;DHT22;9051;51.548;14.348;2022-09-09T03:20:57;13.00;99.90
17851;DHT22;9051;51.548;14.348;2022-09-09T03:23:31;13.00;99.90
17851;DHT22;9051;51.548;14.348;2022-09-09T03:26:07;12.90;99.90
17851;DHT22;9051;51.548;14.348;2022-09-09T03:28:45;12.80;99.90
17851;DHT22;9051;51.548;14.348;2022-09-09T03:31:24;12.80;99.90
17851;DHT22;9051;51.548;14.348;2022-09-09T03:34:03;12.70;99.90
17851;DHT22;9051;51.548;14.348;2022-09-09T03:36:38;12.70;99.90
17851;DHT22;9051;51.548;14.348;2022-09-09T03:39:11;12.60;99.90
17851;DHT22;9051;51.548;14.348;2022-09-09T03:41:46;12.60;99.90
17851;DHT22;9051;51.548;14.348;2022-09-09T03:44:19;12.60;99.90
17851;DHT22;9051;51.548;14.348;2022-09-09T03:46:52;12.60;99.90
17851;DHT22;9051;51.548;14.348;2022-09-09T03:49:26;12.60;99.90
17851;DHT22;9051;51.548;14.348;2022-09-09T03:52:00;12.60;99.90
17851;DHT22;9051;51.548;14.348;2022-09-09T03:54:33;12.70;99.90
17851;DHT22;9051;51.548;14.348;2022-09-09T03:57:06;12.70;99.90
17851;DHT22;9051;51.548;14.348;2022-09-09T03:59:38;12.70;99.90
17851;DHT22;9051;51.548;14.348;2022-09-09T04:02:11;12.70;99.90
17851;DHT22;9051;51.548;14.348;2022-09-09T04:04:44;12.70;99.90
17851;DHT22;9051;51.548;14.348;2022-09-09T04:07:16;12.70;99.90
17851;DHT22;9051;51.548;14.348;2022-09-09T04:09:49;12.70;99.90
17851;DHT22;9051;51.548;14.348;2022-09-09T04:12:22;12.70;99.90
17851;DHT22;9051;51.548;14.348;2022-09-09T04:14:54;12.70;99.90
17851;DHT22;9051;51.548;14.348;2022-09-09T04:17:27;12.70;99.90
17851;DHT22;9051;51.548;14.348;2022-09-09T04:20:01;12.80;99.90
17851;DHT22;9051;51.548;14.348;2022-09-09T04:22:33;12.80;99.90
17851;DHT22;9051;51.548;14.348;2022-09-09T04:25:06;12.90;99.90
17851;DHT22;9051;51.548;14.348;2022-09-09T04:27:39;12.90;99.90
17851;DHT22;9051;51.548;14.348;2022-09-09T04:30:13;13.00;99.90
17851;DHT22;9051;51.548;14.348;2022-09-09T04:32:46;13.00;99.90
17851;DHT22;9051;51.548;14.348;2022-09-09T04:35:20;13.10;99.90
17851;DHT22;9051;51.548;14.348;2022-09-09T04:37:52;13.10;99.90
17851;DHT22;9051;51.548;14.348;2022-09-09T04:40:24;13.20;99.90
17851;DHT22;9051;51.548;14.348;2022-09-09T04:42:57;13.20;99.90
17851;DHT22;9051;51.548;14.348;2022-09-09T04:45:30;13.20;99.90
17851;DHT22;9051;51.548;14.348;2022-09-09T04:48:04;13.30;99.90
17851;DHT22;9051;51.548;14.348;2022-09-09T04:50:39;13.30;99.90
17851;DHT22;9051;51.548;14.348;2022-09-09T04:53:15;13.30;99.90
17851;DHT22;9051;51.548;14.348;2022-09-09T04:55:48;13.30;99.90
17851;DHT22;9051;51.548;14.348;2022-09-09T04:58:21;13.30;99.90
17851;DHT22;9051;51.548;14.348;2022-09-09T05:00:54;13.30;99.90
17851;DHT22;9051;51.548;14.348;2022-09-09T05:03:27;13.30;99.90
17851;DHT22;9051;51.548;14.348;2022-09-09T05:06:06;13.30;99.90
17851;DHT22;9051;51.548;14.348;2022-09-09T05:08:42;13.30;99.90
17851;DHT22;9051;51.548;14.348;2022-09-09T05:11:16;13.30;99.90
17851;DHT22;9051;51.548;14.348;2022-09-09T05:13:49;13.40;99.90
17851;DHT22;9051;51.548;14.348;2022-09-09T05:16:23;13.40;99.90
17851;DHT22;9051;51.548;14.348;2022-09-09T05:18:55;13.50;99.90
17851;DHT22;9051;51.548;14.348;2022-09-09T05:21:29;13.50;99.90
17851;DHT22;9051;51.548;14.348;2022-09-09T05:24:02;13.60;99.90
17851;DHT22;9051;51.548;14.348;2022-09-09T05:26:34;13.70;99.90
17851;DHT22;9051;51.548;14.348;2022-09-09T05:29:07;13.70;99.90
17851;DHT22;9051;51.548;14.348;2022-09-09T05:31:39;13.80;99.90
17851;DHT22;9051;51.548;14.348;2022-09-09T05:34:15;13.90;99.90
17851;DHT22;9051;51.548;14.348;2022-09-09T05:36:50;13.90;99.90
17851;DHT22;9051;51.548;14.348;2022-09-09T05:39:25;14.00;99.90
17851;DHT22;9051;51.548;14.348;2022-09-09T05:41:58;14.00;99.90
17851;DHT22;9051;51.548;14.348;2022-09-09T05:44:30;14.10;99.90
17851;DHT22;9051;51.548;14.348;2022-09-09T05:47:03;14.20;99.90
17851;DHT22;9051;51.548;14.348;2022-09-09T05:49:35;14.20;99.90
17851;DHT22;9051;51.548;14.348;2022-09-09T05:52:08;14.30;99.90
17851;DHT22;9051;51.548;14.348;2022-09-09T05:54:40;14.40;99.90
17851;DHT22;9051;51.548;14.348;2022-09-09T05:57:14;14.40;99.90
17851;DHT22;9051;51.548;14.348;2022-09-09T05:59:46;14.50;99.90
17851;DHT22;9051;51.548;14.348;2022-09-09T06:02:18;14.60;99.90
17851;DHT22;9051;51.548;14.348;2022-09-09T06:04:51;14.60;99.90
17851;DHT22;9051;51.548;14.348;2022-09-09T06:07:24;14.70;99.90
17851;DHT22;9051;51.548;14.348;2022-09-09T06:09:56;14.80;99.90
17851;DHT22;9051;51.548;14.348;2022-09-09T06:12:30;14.90;99.90
17851;DHT22;9051;51.548;14.348;2022-09-09T06:15:06;14.90;99.90
17851;DHT22;9051;51.548;14.348;2022-09-09T06:17:40;15.00;99.90
17851;DHT22;9051;51.548;14.348;2022-09-09T06:20:14;15.00;99.90
17851;DHT22;9051;51.548;14.348;2022-09-09T06:22:48;15.20;99.90
17851;DHT22;9051;51.548;14.348;2022-09-09T06:25:21;15.20;99.90
17851;DHT22;9051;51.548;14.348;2022-09-09T06:27:55;15.30;99.90
17851;DHT22;9051;51.548;14.348;2022-09-09T06:30:27;15.30;99.90
17851;DHT22;9051;51.548;14.348;2022-09-09T06:33:01;15.40;99.90
17851;DHT22;9051;51.548;14.348;2022-09-09T06:35:32;15.40;99.90
17851;DHT22;9051;51.548;14.348;2022-09-09T06:38:07;15.50;99.90
17851;DHT22;9051;51.548;14.348;2022-09-09T06:40:39;15.50;99.90
17851;DHT22;9051;51.548;14.348;2022-09-09T06:43:13;15.50;99.90
17851;DHT22;9051;51.548;14.348;2022-09-09T06:45:56;15.60;99.90
17851;DHT22;9051;51.548;14.348;2022-09-09T06:48:28;15.60;99.90
17851;DHT22;9051;51.548;14.348;2022-09-09T06:51:03;15.70;99.90
17851;DHT22;9051;51.548;14.348;2022-09-09T06:53:39;15.70;99.90
17851;DHT22;9051;51.548;14.348;2022-09-09T06:56:18;15.70;99.90
17851;DHT22;9051;51.548;14.348;2022-09-09T06:58:57;15.70;99.90
17851;DHT22;9051;51.548;14.348;2022-09-09T07:01:35;15.80;99.90
17851;DHT22;9051;51.548;14.348;2022-09-09T07:04:13;15.80;99.90
17851;DHT22;9051;51.548;14.348;2022-09-09T07:06:47;15.90;99.90
17851;DHT22;9051;51.548;14.348;2022-09-09T07:09:28;15.90;99.90
17851;DHT22;9051;51.548;14.348;2022-09-09T07:12:03;16.00;99.90
17851;DHT22;9051;51.548;14.348;2022-09-09T07:14:42;16.00;99.90
17851;DHT22;9051;51.548;14.348;2022-09-09T07:17:17;16.10;99.90
17851;DHT22;9051;51.548;14.348;2022-09-09T07:19:49;16.10;99.90
17851;DHT22;9051;51.548;14.348;2022-09-09T07:22:21;16.20;99.90
17851;DHT22;9051;51.548;14.348;2022-09-09T07:24:55;16.30;99.90
17851;DHT22;9051;51.548;14.348;2022-09-09T07:27:29;16.30;99.90
17851;DHT22;9051;51.548;14.348;2022-09-09T07:30:03;16.40;99.90
17851;DHT22;9051;51.548;14.348;2022-09-09T07:32:36;16.50;99.90
17851;DHT22;9051;51.548;14.348;2022-09-09T07:35:10;16.60;99.90
17851;DHT22;9051;51.548;14.348;2022-09-09T07:37:42;16.70;99.90
17851;DHT22;9051;51.548;14.348;2022-09-09T07:40:18;16.80;99.90
17851;DHT22;9051;51.548;14.348;2022-09-09T07:42:52;16.90;99.90
17851;DHT22;9051;51.548;14.348;2022-09-09T07:45:26;17.00;99.90
17851;DHT22;9051;51.548;14.348;2022-09-09T07:47:59;17.10;99.90
17851;DHT22;9051;51.548;14.348;2022-09-09T07:50:31;17.20;99.90
17851;DHT22;9051;51.548;14.348;2022-09-09T07:53:03;17.30;99.90
17851;DHT22;9051;51.548;14.348;2022-09-09T07:55:38;17.40;99.90
17851;DHT22;9051;51.548;14.348;2022-09-09T07:58:11;17.50;99.90
17851;DHT22;9051;51.548;14.348;2022-09-09T08:00:44;17.60;99.90
17851;DHT22;9051;51.548;14.348;2022-09-09T08:03:17;17.70;99.90
17851;DHT22;9051;51.548;14.348;2022-09-09T08:05:50;17.90;99.90
17851;DHT22;9051;51.548;14.348;2022-09-09T08:08:22;17.90;99.90
17851;DHT22;9051;51.548;14.348;2022-09-09T08:11:03;18.10;99.90
17851;DHT22;9051;51.548;14.348;2022-09-09T08:13:37;18.20;99.90
17851;DHT22;9051;51.548;14.348;2022-09-09T08:16:12;18.30;99.90
17851;DHT22;9051;51.548;14.348;2022-09-09T08:18:46;18.50;99.90
17851;DHT22;9051;51.548;14.348;2022-09-09T08:21:21;18.60;99.90
17851;DHT22;9051;51.548;14.348;2022-09-09T08:23:56;18.60;99.90
17851;DHT22;9051;51.548;14.348;2022-09-09T08:26:32;18.70;99.90
17851;DHT22;9051;51.548;14.348;2022-09-09T08:29:07;19.00;99.90
17851;DHT22;9051;51.548;14.348;2022-09-09T08:31:41;19.10;99.90
17851;DHT22;9051;51.548;14.348;2022-09-09T08:34:14;19.20;99.90
17851;DHT22;9051;51.548;14.348;2022-09-09T08:36:48;19.30;99.90
17851;DHT22;9051;51.548;14.348;2022-09-09T08:39:22;19.40;99.90
17851;DHT22;9051;51.548;14.348;2022-09-09T08:42:17;19.40;99.90
17851;DHT22;9051;51.548;14.348;2022-09-09T08:50:49;19.80;99.90
17851;DHT22;9051;51.548;14.348;2022-09-09T08:53:33;19.90;99.90
17851;DHT22;9051;51.548;14.348;2022-09-09T08:56:12;20.00;99.90
17851;DHT22;9051;51.548;14.348;2022-09-09T08:58:55;20.00;99.90
17851;DHT22;9051;51.548;14.348;2022-09-09T09:01:48;20.00;99.90
17851;DHT22;9051;51.548;14.348;2022-09-09T09:04:37;20.10;99.90
17851;DHT22;9051;51.548;14.348;2022-09-09T09:07:22;20.30;99.90
17851;DHT22;9051;51.548;14.348;2022-09-09T09:10:01;20.40;99.90
17851;DHT22;9051;51.548;14.348;2022-09-09T09:12:41;20.60;99.90
17851;DHT22;9051;51.548;14.348;2022-09-09T09:15:19;20.70;99.90
17851;DHT22;9051;51.548;14.348;2022-09-09T09:17:54;20.70;99.90
17851;DHT22;9051;51.548;14.348;2022-09-09T09:20:32;20.70;99.90
17851;DHT22;9051;51.548;14.348;2022-09-09T09:23:09;20.80;99.90
17851;DHT22;9051;51.548;14.348;2022-09-09T09:25:46;21.00;99.90
17851;DHT22;9051;51.548;14.348;2022-09-09T09:28:24;21.10;99.90
17851;DHT22;9051;51.548;14.348;2022-09-09T09:31:04;21.30;99.90
17851;DHT22;9051;51.548;14.348;2022-09-09T09:33:47;21.30;99.90
17851;DHT22;9051;51.548;14.348;2022-09-09T09:36:24;21.30;99.90
17851;DHT22;9051;51.548;14.348;2022-09-09T09:38:59;21.30;99.90
17851;DHT22;9051;51.548;14.348;2022-09-09T09:41:35;21.20;99.90
17851;DHT22;9051;51.548;14.348;2022-09-09T09:44:22;21.10;99.90
17851;DHT22;9051;51.548;14.348;2022-09-09T09:47:07;21.30;99.90
17851;DHT22;9051;51.548;14.348;2022-09-09T09:49:51;21.30;99.90
17851;DHT22;9051;51.548;14.348;2022-09-09T09:52:26;21.20;99.90
17851;DHT22;9051;51.548;14.348;2022-09-09T09:54:59;21.30;99.90
17851;DHT22;9051;51.548;14.348;2022-09-09T09:57:36;21.30;99.90
17851;DHT22;9051;51.548;14.348;2022-09-09T10:00:14;21.50;99.90
17851;DHT22;9051;51.548;14.348;2022-09-09T10:02:55;21.60;99.90
17851;DHT22;9051;51.548;14.348;2022-09-09T10:05:31;21.70;99.90
17851;DHT22;9051;51.548;14.348;2022-09-09T10:08:11;21.80;99.90
17851;DHT22;9051;51.548;14.348;2022-09-09T10:10:55;21.90;99.90
17851;DHT22;9051;51.548;14.348;2022-09-09T10:13:33;22.00;99.90
17851;DHT22;9051;51.548;14.348;2022-09-09T10:16:18;22.10;99.90
17851;DHT22;9051;51.548;14.348;2022-09-09T10:18:59;22.10;99.90
17851;DHT22;9051;51.548;14.348;2022-09-09T10:21:48;22.10;99.90
17851;DHT22;9051;51.548;14.348;2022-09-09T10:24:38;21.90;99.90
17851;DHT22;9051;51.548;14.348;2022-09-09T10:27:17;21.80;99.90
17851;DHT22;9051;51.548;14.348;2022-09-09T10:30:02;21.70;99.90
17851;DHT22;9051;51.548;14.348;2022-09-09T10:32:48;21.60;99.90
17851;DHT22;9051;51.548;14.348;2022-09-09T10:35:39;21.40;99.90
17851;DHT22;9051;51.548;14.348;2022-09-09T10:38:18;21.20;99.90
17851;DHT22;9051;51.548;14.348;2022-09-09T10:41:15;21.20;99.90
17851;DHT22;9051;51.548;14.348;2022-09-09T10:44:06;21.00;99.90
17851;DHT22;9051;51.548;14.348;2022-09-09T10:47:07;21.00;99.90
17851;DHT22;9051;51.548;14.348;2022-09-09T10:49:57;20.80;99.90
17851;DHT22;9051;51.548;14.348;2022-09-09T10:52:40;20.70;99.90
17851;DHT22;9051;51.548;14.348;2022-09-09T10:55:17;20.60;99.90
17851;DHT22;9051;51.548;14.348;2022-09-09T10:57:53;20.50;99.90
17851;DHT22;9051;51.548;14.348;2022-09-09T11:00:30;20.30;99.90
17851;DHT22;9051;51.548;14.348;2022-09-09T11:03:14;20.20;99.90
17851;DHT22;9051;51.548;14.348;2022-09-09T11:05:51;20.20;99.90
17851;DHT22;9051;51.548;14.348;2022-09-09T11:08:28;20.10;99.90
17851;DHT22;9051;51.548;14.348;2022-09-09T11:11:03;20.00;99.90
17851;DHT22;9051;51.548;14.348;2022-09-09T11:13:42;20.00;99.90
17851;DHT22;9051;51.548;14.348;2022-09-09T11:16:22;20.00;99.90
17851;DHT22;9051;51.548;14.348;2022-09-09T11:19:00;19.90;99.90
17851;DHT22;9051;51.548;14.348;2022-09-09T11:21:37;20.00;99.90
17851;DHT22;9051;51.548;14.348;2022-09-09T11:24:18;19.90;99.90
17851;DHT22;9051;51.548;14.348;2022-09-09T11:26:57;20.00;99.90
17851;DHT22;9051;51.548;14.348;2022-09-09T11:33:01;20.10;99.90
17851;DHT22;9051;51.548;14.348;2022-09-09T11:35:47;20.20;99.90
17851;DHT22;9051;51.548;14.348;2022-09-09T11:38:27;20.20;99.90
17851;DHT22;9051;51.548;14.348;2022-09-09T11:41:05;20.40;99.90
17851;DHT22;9051;51.548;14.348;2022-09-09T11:43:40;20.50;99.90
17851;DHT22;9051;51.548;14.348;2022-09-09T11:46:15;20.50;99.90
17851;DHT22;9051;51.548;14.348;2022-09-09T11:49:00;20.60;99.90
17851;DHT22;9051;51.548;14.348;2022-09-09T11:51:34;20.90;99.90
17851;DHT22;9051;51.548;14.348;2022-09-09T11:54:30;20.90;99.90
17851;DHT22;9051;51.548;14.348;2022-09-09T11:57:25;21.00;99.90
17851;DHT22;9051;51.548;14.348;2022-09-09T11:59:58;21.20;99.90
17851;DHT22;9051;51.548;14.348;2022-09-09T12:02:31;21.40;99.90
17851;DHT22;9051;51.548;14.348;2022-09-09T12:05:07;21.60;99.90
17851;DHT22;9051;51.548;14.348;2022-09-09T12:07:45;21.70;99.90
17851;DHT22;9051;51.548;14.348;2022-09-09T12:10:26;21.90;99.90
17851;DHT22;9051;51.548;14.348;2022-09-09T12:13:15;21.90;99.90
17851;DHT22;9051;51.548;14.348;2022-09-09T12:15:49;22.10;99.90
17851;DHT22;9051;51.548;14.348;2022-09-09T12:18:23;21.90;99.90
17851;DHT22;9051;51.548;14.348;2022-09-09T12:21:02;21.90;99.90
17851;DHT22;9051;51.548;14.348;2022-09-09T12:23:44;21.70;99.90
17851;DHT22;9051;51.548;14.348;2022-09-09T12:26:29;21.70;99.90
17851;DHT22;9051;51.548;14.348;2022-09-09T12:29:13;21.90;99.90
17851;DHT22;9051;51.548;14.348;2022-09-09T12:31:49;22.10;99.90
17851;DHT22;9051;51.548;14.348;2022-09-09T12:34:32;22.30;99.90
17851;DHT22;9051;51.548;14.348;2022-09-09T12:37:16;22.60;99.90
17851;DHT22;9051;51.548;14.348;2022-09-09T12:39:52;22.80;99.90
17851;DHT22;9051;51.548;14.348;2022-09-09T12:42:27;22.90;99.90
17851;DHT22;9051;51.548;14.348;2022-09-09T12:45:01;23.00;99.90
17851;DHT22;9051;51.548;14.348;2022-09-09T12:47:39;23.10;99.90
17851;DHT22;9051;51.548;14.348;2022-09-09T12:50:19;23.20;99.90
17851;DHT22;9051;51.548;14.348;2022-09-09T12:52:54;23.00;99.90
17851;DHT22;9051;51.548;14.348;2022-09-09T12:55:29;23.00;99.90
17851;DHT22;9051;51.548;14.348;2022-09-09T12:58:05;23.00;99.90
17851;DHT22;9051;51.548;14.348;2022-09-09T13:00:49;22.80;99.90
17851;DHT22;9051;51.548;14.348;2022-09-09T13:03:23;22.70;99.90
17851;DHT22;9051;51.548;14.348;2022-09-09T13:05:59;22.60;99.90
17851;DHT22;9051;51.548;14.348;2022-09-09T13:08:42;22.50;99.90
17851;DHT22;9051;51.548;14.348;2022-09-09T13:11:17;22.50;99.90
17851;DHT22;9051;51.548;14.348;2022-09-09T13:13:53;22.50;99.90
17851;DHT22;9051;51.548;14.348;2022-09-09T13:16:29;22.50;99.90
17851;DHT22;9051;51.548;14.348;2022-09-09T13:19:07;22.60;99.90
17851;DHT22;9051;51.548;14.348;2022-09-09T13:21:40;22.90;99.90
17851;DHT22;9051;51.548;14.348;2022-09-09T13:24:27;23.00;99.90
17851;DHT22;9051;51.548;14.348;2022-09-09T13:27:02;22.90;99.90
17851;DHT22;9051;51.548;14.348;2022-09-09T13:29:34;23.00;99.90
17851;DHT22;9051;51.548;14.348;2022-09-09T13:32:17;23.30;99.90
17851;DHT22;9051;51.548;14.348;2022-09-09T13:34:53;23.30;99.90
17851;DHT22;9051;51.548;14.348;2022-09-09T13:37:30;23.30;99.90
17851;DHT22;9051;51.548;14.348;2022-09-09T13:40:06;23.20;99.90
17851;DHT22;9051;51.548;14.348;2022-09-09T13:42:41;23.30;99.90
17851;DHT22;9051;51.548;14.348;2022-09-09T13:45:17;23.30;99.90
17851;DHT22;9051;51.548;14.348;2022-09-09T13:47:52;23.30;99.90
17851;DHT22;9051;51.548;14.348;2022-09-09T13:50:28;23.20;99.90
17851;DHT22;9051;51.548;14.348;2022-09-09T13:53:00;23.20;99.90
17851;DHT22;9051;51.548;14.348;2022-09-09T13:55:32;23.40;99.90
17851;DHT22;9051;51.548;14.348;2022-09-09T13:58:05;23.80;99.90
17851;DHT22;9051;51.548;14.348;2022-09-09T14:00:38;24.10;99.90
17851;DHT22;9051;51.548;14.348;2022-09-09T14:03:14;24.10;99.90
17851;DHT22;9051;51.548;14.348;2022-09-09T14:05:46;24.10;99.90
17851;DHT22;9051;51.548;14.348;2022-09-09T14:08:24;24.00;99.90
17851;DHT22;9051;51.548;14.348;2022-09-09T14:11:12;23.80;99.90
17851;DHT22;9051;51.548;14.348;2022-09-09T14:13:44;23.70;99.90
17851;DHT22;9051;51.548;14.348;2022-09-09T14:16:17;23.60;99.90
17851;DHT22;9051;51.548;14.348;2022-09-09T14:18:52;23.70;99.90
17851;DHT22;9051;51.548;14.348;2022-09-09T14:21:24;23.70;99.90
17851;DHT22;9051;51.548;14.348;2022-09-09T14:23:56;23.90;99.90
17851;DHT22;9051;51.548;14.348;2022-09-09T14:26:29;24.00;99.90
17851;DHT22;9051;51.548;14.348;2022-09-09T14:29:02;24.00;99.90
17851;DHT22;9051;51.548;14.348;2022-09-09T14:31:34;23.90;99.90
17851;DHT22;9051;51.548;14.348;2022-09-09T14:34:07;23.90;99.90
17851;DHT22;9051;51.548;14.348;2022-09-09T14:36:41;23.70;99.90
17851;DHT22;9051;51.548;14.348;2022-09-09T14:39:15;23.60;99.90
17851;DHT22;9051;51.548;14.348;2022-09-09T14:41:47;23.50;99.90
17851;DHT22;9051;51.548;14.348;2022-09-09T14:44:19;23.40;99.90
17851;DHT22;9051;51.548;14.348;2022-09-09T14:46:52;23.30;99.90
17851;DHT22;9051;51.548;14.348;2022-09-09T14:49:26;23.30;99.90
17851;DHT22;9051;51.548;14.348;2022-09-09T14:51:58;23.30;99.90
17851;DHT22;9051;51.548;14.348;2022-09-09T14:54:30;23.20;99.90
17851;DHT22;9051;51.548;14.348;2022-09-09T14:57:03;23.10;99.90
17851;DHT22;9051;51.548;14.348;2022-09-09T14:59:35;23.20;99.90
17851;DHT22;9051;51.548;14.348;2022-09-09T15:02:08;23.10;99.90
17851;DHT22;9051;51.548;14.348;2022-09-09T15:04:42;23.10;99.90
17851;DHT22;9051;51.548;14.348;2022-09-09T15:07:15;23.10;99.90
17851;DHT22;9051;51.548;14.348;2022-09-09T15:09:47;23.50;99.90
17851;DHT22;9051;51.548;14.348;2022-09-09T15:12:20;23.80;99.90
17851;DHT22;9051;51.548;14.348;2022-09-09T15:14:52;23.90;99.90
17851;DHT22;9051;51.548;14.348;2022-09-09T15:17:25;23.80;99.90
17851;DHT22;9051;51.548;14.348;2022-09-09T15:19:59;24.20;99.90
17851;DHT22;9051;51.548;14.348;2022-09-09T15:22:31;24.60;99.90
17851;DHT22;9051;51.548;14.348;2022-09-09T15:25:05;24.80;99.90
17851;DHT22;9051;51.548;14.348;2022-09-09T15:27:38;25.00;99.90
17851;DHT22;9051;51.548;14.348;2022-09-09T15:30:11;24.90;99.90
17851;DHT22;9051;51.548;14.348;2022-09-09T15:32:43;24.90;99.90
17851;DHT22;9051;51.548;14.348;2022-09-09T15:35:17;25.00;99.90
17851;DHT22;9051;51.548;14.348;2022-09-09T15:37:49;24.90;99.90
17851;DHT22;9051;51.548;14.348;2022-09-09T15:40:21;24.90;99.90
17851;DHT22;9051;51.548;14.348;2022-09-09T15:42:53;25.00;99.90
17851;DHT22;9051;51.548;14.348;2022-09-09T15:45:25;25.00;99.90
17851;DHT22;9051;51.548;14.348;2022-09-09T15:47:57;24.80;99.90
17851;DHT22;9051;51.548;14.348;2022-09-09T15:50:31;24.90;99.90
17851;DHT22;9051;51.548;14.348;2022-09-09T15:53:03;25.00;99.90
17851;DHT22;9051;51.548;14.348;2022-09-09T15:55:36;24.90;99.90
17851;DHT22;9051;51.548;14.348;2022-09-09T15:58:08;24.70;99.90
17851;DHT22;9051;51.548;14.348;2022-09-09T16:00:42;24.60;99.90
17851;DHT22;9051;51.548;14.348;2022-09-09T16:03:16;24.60;99.90
17851;DHT22;9051;51.548;14.348;2022-09-09T16:05:52;24.50;99.90
17851;DHT22;9051;51.548;14.348;2022-09-09T16:08:23;24.30;99.90
17851;DHT22;9051;51.548;14.348;2022-09-09T16:10:56;24.20;99.90
17851;DHT22;9051;51.548;14.348;2022-09-09T16:13:28;24.00;99.90
17851;DHT22;9051;51.548;14.348;2022-09-09T16:16:00;23.90;99.90
17851;DHT22;9051;51.548;14.348;2022-09-09T16:18:34;23.80;99.90
17851;DHT22;9051;51.548;14.348;2022-09-09T16:21:08;23.70;99.90
17851;DHT22;9051;51.548;14.348;2022-09-09T16:23:45;23.60;99.90
17851;DHT22;9051;51.548;14.348;2022-09-09T16:26:18;23.50;99.90
17851;DHT22;9051;51.548;14.348;2022-09-09T16:28:50;23.30;99.90
17851;DHT22;9051;51.548;14.348;2022-09-09T16:31:25;23.30;99.90
17851;DHT22;9051;51.548;14.348;2022-09-09T16:33:57;23.10;99.90
17851;DHT22;9051;51.548;14.348;2022-09-09T16:36:33;22.80;99.90
17851;DHT22;9051;51.548;14.348;2022-09-09T16:39:07;22.50;99.90